sensor_id;sensor_type;location;lat;lon;timestamp;temperature;humidity
4874;DHT22;2451;49.970;9.068;2023-07-31T00:02:22;19.10;99.90
4874;DHT22;2451;49.970;9.068;2023-07-31T00:04:48;19.10;99.90
4874;DHT22;2451;49.970;9.068;2023-07-31T00:07:14;19.10;99.90
4874;DHT22;2451;49.970;9.068;2023-07-31T00:09:40;19.20;99.90
4874;DHT22;2451;49.970;9.068;2023-07-31T00:12:05;19.20;99.90
4874;DHT22;2451;49.970;9.068;2023-07-31T00:14:31;19.20;99.90
4874;DHT22;2451;49.970;9.068;2023-07-31T00:16:57;19.20;99.90
4874;DHT22;2451;49.970;9.068;2023-07-31T00:19:22;19.20;99.90
4874;DHT22;2451;49.970;9.068;2023-07-31T00:21:48;19.20;99.90
4874;DHT22;2451;49.970;9.068;2023-07-31T00:24:13;19.20;99.90
4874;DHT22;2451;49.970;9.068;2023-07-31T00:26:39;19.20;99.90
4874;DHT22;2451;49.970;9.068;2023-07-31T00:29:04;19.20;99.90
4874;DHT22;2451;49.970;9.068;2023-07-31T00:31:30;19.20;99.90
4874;DHT22;2451;49.970;9.068;2023-07-31T00:33:55;19.20;99.90
4874;DHT22;2451;49.970;9.068;2023-07-31T00:36:21;19.20;99.90
4874;DHT22;2451;49.970;9.068;2023-07-31T00:38:46;19.20;99.90
4874;DHT22;2451;49.970;9.068;2023-07-31T00:41:12;19.10;99.90
4874;DHT22;2451;49.970;9.068;2023-07-31T00:43:37;19.20;99.90
4874;DHT22;2451;49.970;9.068;2023-07-31T00:46:03;19.20;99.90
4874;DHT22;2451;49.970;9.068;2023-07-31T00:48:28;19.20;99.90
4874;DHT22;2451;49.970;9.068;2023-07-31T00:50:54;19.20;99.90
4874;DHT22;2451;49.970;9.068;2023-07-31T00:53:20;19.20;99.90
4874;DHT22;2451;49.970;9.068;2023-07-31T00:55:45;19.20;99.90
4874;DHT22;2451;49.970;9.068;2023-07-31T00:58:11;19.20;99.90
4874;DHT22;2451;49.970;9.068;2023-07-31T01:00:37;19.20;99.90
4874;DHT22;2451;49.970;9.068;2023-07-31T01:03:02;19.20;99.90
4874;DHT22;2451;49.970;9.068;2023-07-31T01:08:41;19.10;99.90
4874;DHT22;2451;49.970;9.068;2023-07-31T01:11:17;19.10;99.90
4874;DHT22;2451;49.970;9.068;2023-07-31T01:13:44;19.10;99.90
4874;DHT22;2451;49.970;9.068;2023-07-31T01:16:10;19.10;99.90
4874;DHT22;2451;49.970;9.068;2023-07-31T01:18:37;19.10;99.90
4874;DHT22;2451;49.970;9.068;2023-07-31T01:24:28;19.10;99.90
4874;DHT22;2451;49.970;9.068;2023-07-31T01:27:08;19.20;99.90
4874;DHT22;2451;49.970;9.068;2023-07-31T01:29:43;19.20;99.90
4874;DHT22;2451;49.970;9.068;2023-07-31T01:32:13;19.20;99.90
4874;DHT22;2451;49.970;9.068;2023-07-31T01:34:41;19.20;99.90
4874;DHT22;2451;49.970;9.068;2023-07-31T01:37:07;19.20;99.90
4874;DHT22;2451;49.970;9.068;2023-07-31T01:39:32;19.10;99.90
4874;DHT22;2451;49.970;9.068;2023-07-31T01:41:58;19.20;99.90
4874;DHT22;2451;49.970;9.068;2023-07-31T01:44:23;19.20;99.90
4874;DHT22;2451;49.970;9.068;2023-07-31T01:46:49;19.20;99.90
4874;DHT22;2451;49.970;9.068;2023-07-31T01:49:14;19.20;99.90
4874;DHT22;2451;49.970;9.068;2023-07-31T01:51:40;19.20;99.90
4874;DHT22;2451;49.970;9.068;2023-07-31T01:54:05;19.20;99.90
4874;DHT22;2451;49.970;9.068;2023-07-31T01:56:31;19.20;99.90
4874;DHT22;2451;49.970;9.068;2023-07-31T01:58:57;19.10;99.90
4874;DHT22;2451;49.970;9.068;2023-07-31T02:01:22;19.10;99.90
4874;DHT22;2451;49.970;9.068;2023-07-31T02:03:48;19.20;99.90
4874;DHT22;2451;49.970;9.068;2023-07-31T02:06:14;19.20;99.90
4874;DHT22;2451;49.970;9.068;2023-07-31T02:08:39;19.20;99.90
4874;DHT22;2451;49.970;9.068;2023-07-31T02:11:05;19.20;99.90
4874;DHT22;2451;49.970;9.068;2023-07-31T02:13:30;19.20;99.90
4874;DHT22;2451;49.970;9.068;2023-07-31T02:15:56;19.20;99.90
4874;DHT22;2451;49.970;9.068;2023-07-31T02:18:22;19.20;99.90
4874;DHT22;2451;49.970;9.068;2023-07-31T02:20:51;19.20;99.90
4874;DHT22;2451;49.970;9.068;2023-07-31T02:23:18;19.10;99.90
4874;DHT22;2451;49.970;9.068;2023-07-31T02:25:44;19.20;99.90
4874;DHT22;2451;49.970;9.068;2023-07-31T02:28:09;19.20;99.90
4874;DHT22;2451;49.970;9.068;2023-07-31T02:30:35;19.20;99.90
4874;DHT22;2451;49.970;9.068;2023-07-31T02:33:00;19.20;99.90
4874;DHT22;2451;49.970;9.068;2023-07-31T02:35:26;19.10;99.90
4874;DHT22;2451;49.970;9.068;2023-07-31T02:37:51;19.10;99.90
4874;DHT22;2451;49.970;9.068;2023-07-31T02:40:17;19.10;99.90
4874;DHT22;2451;49.970;9.068;2023-07-31T02:42:42;19.20;99.90
4874;DHT22;2451;49.970;9.068;2023-07-31T02:45:08;19.20;99.90
4874;DHT22;2451;49.970;9.068;2023-07-31T02:47:34;19.20;99.90
4874;DHT22;2451;49.970;9.068;2023-07-31T02:50:00;19.10;99.90
4874;DHT22;2451;49.970;9.068;2023-07-31T02:52:25;19.10;99.90
4874;DHT22;2451;49.970;9.068;2023-07-31T02:54:51;19.10;99.90
4874;DHT22;2451;49.970;9.068;2023-07-31T02:57:17;19.10;99.90
4874;DHT22;2451;49.970;9.068;2023-07-31T02:59:43;19.10;99.90
4874;DHT22;2451;49.970;9.068;2023-07-31T03:02:08;19.10;99.90
4874;DHT22;2451;49.970;9.068;2023-07-31T03:04:34;19.10;99.90
4874;DHT22;2451;49.970;9.068;2023-07-31T03:06:59;19.00;99.90
4874;DHT22;2451;49.970;9.068;2023-07-31T03:09:25;19.00;99.90
4874;DHT22;2451;49.970;9.068;2023-07-31T03:11:50;19.00;99.90
4874;DHT22;2451;49.970;9.068;2023-07-31T03:14:16;19.00;99.90
4874;DHT22;2451;49.970;9.068;2023-07-31T03:16:41;19.00;99.90
4874;DHT22;2451;49.970;9.068;2023-07-31T03:19:07;18.90;99.90
4874;DHT22;2451;49.970;9.068;2023-07-31T03:21:32;19.00;99.90
4874;DHT22;2451;49.970;9.068;2023-07-31T03:23:57;18.90;99.90
4874;DHT22;2451;49.970;9.068;2023-07-31T03:26:23;18.90;99.90
4874;DHT22;2451;49.970;9.068;2023-07-31T03:28:49;18.90;99.90
4874;DHT22;2451;49.970;9.068;2023-07-31T03:31:15;18.90;99.90
4874;DHT22;2451;49.970;9.068;2023-07-31T03:33:40;18.90;99.90
4874;DHT22;2451;49.970;9.068;2023-07-31T03:36:06;18.90;99.90
4874;DHT22;2451;49.970;9.068;2023-07-31T03:38:31;18.90;99.90
4874;DHT22;2451;49.970;9.068;2023-07-31T03:40:57;18.90;99.90
4874;DHT22;2451;49.970;9.068;2023-07-31T03:43:24;18.80;99.90
4874;DHT22;2451;49.970;9.068;2023-07-31T03:45:50;18.80;99.90
4874;DHT22;2451;49.970;9.068;2023-07-31T03:48:16;18.70;99.90
4874;DHT22;2451;49.970;9.068;2023-07-31T03:50:41;18.70;99.90
4874;DHT22;2451;49.970;9.068;2023-07-31T03:53:07;18.70;99.90
4874;DHT22;2451;49.970;9.068;2023-07-31T03:55:32;18.70;99.90
4874;DHT22;2451;49.970;9.068;2023-07-31T03:57:58;18.70;99.90
4874;DHT22;2451;49.970;9.068;2023-07-31T04:00:26;18.60;99.90
4874;DHT22;2451;49.970;9.068;2023-07-31T04:02:52;18.60;99.90
4874;DHT22;2451;49.970;9.068;2023-07-31T04:05:17;18.60;99.90
4874;DHT22;2451;49.970;9.068;2023-07-31T04:07:43;18.60;99.90
4874;DHT22;2451;49.970;9.068;2023-07-31T04:10:09;18.50;99.90
4874;DHT22;2451;49.970;9.068;2023-07-31T04:12:34;18.50;99.90
4874;DHT22;2451;49.970;9.068;2023-07-31T04:15:00;18.50;99.90
4874;DHT22;2451;49.970;9.068;2023-07-31T04:17:25;18.50;99.90
4874;DHT22;2451;49.970;9.068;2023-07-31T04:19:51;18.50;99.90
4874;DHT22;2451;49.970;9.068;2023-07-31T04:22:17;18.50;99.90
4874;DHT22;2451;49.970;9.068;2023-07-31T04:24:42;18.50;99.90
4874;DHT22;2451;49.970;9.068;2023-07-31T04:27:08;18.50;99.90
4874;DHT22;2451;49.970;9.068;2023-07-31T04:29:33;18.50;99.90
4874;DHT22;2451;49.970;9.068;2023-07-31T04:31:59;18.50;99.90
4874;DHT22;2451;49.970;9.068;2023-07-31T04:34:24;18.50;99.90
4874;DHT22;2451;49.970;9.068;2023-07-31T04:36:50;18.60;99.90
4874;DHT22;2451;49.970;9.068;2023-07-31T04:39:15;18.60;99.90
4874;DHT22;2451;49.970;9.068;2023-07-31T04:41:41;18.70;99.90
4874;DHT22;2451;49.970;9.068;2023-07-31T04:44:06;18.60;99.90
4874;DHT22;2451;49.970;9.068;2023-07-31T04:46:32;18.70;99.90
4874;DHT22;2451;49.970;9.068;2023-07-31T04:48:57;18.70;99.90
4874;DHT22;2451;49.970;9.068;2023-07-31T04:51:23;18.70;99.90
4874;DHT22;2451;49.970;9.068;2023-07-31T04:53:49;18.60;99.90
4874;DHT22;2451;49.970;9.068;2023-07-31T04:56:15;18.60;99.90
4874;DHT22;2451;49.970;9.068;2023-07-31T04:58:40;18.60;99.90
4874;DHT22;2451;49.970;9.068;2023-07-31T05:01:06;18.60;99.90
4874;DHT22;2451;49.970;9.068;2023-07-31T05:03:31;18.60;99.90
4874;DHT22;2451;49.970;9.068;2023-07-31T05:05:57;18.60;99.90
4874;DHT22;2451;49.970;9.068;2023-07-31T05:08:23;18.70;99.90
4874;DHT22;2451;49.970;9.068;2023-07-31T05:10:48;18.70;99.90
4874;DHT22;2451;49.970;9.068;2023-07-31T05:13:14;18.70;99.90
4874;DHT22;2451;49.970;9.068;2023-07-31T05:15:41;18.70;99.90
4874;DHT22;2451;49.970;9.068;2023-07-31T05:18:06;18.80;99.90
4874;DHT22;2451;49.970;9.068;2023-07-31T05:20:32;18.80;99.90
4874;DHT22;2451;49.970;9.068;2023-07-31T05:22:57;18.80;99.90
4874;DHT22;2451;49.970;9.068;2023-07-31T05:25:23;18.80;99.90
4874;DHT22;2451;49.970;9.068;2023-07-31T05:27:48;18.80;99.90
4874;DHT22;2451;49.970;9.068;2023-07-31T05:30:14;18.90;99.90
4874;DHT22;2451;49.970;9.068;2023-07-31T05:32:39;18.90;99.90
4874;DHT22;2451;49.970;9.068;2023-07-31T05:35:05;18.90;99.90
4874;DHT22;2451;49.970;9.068;2023-07-31T05:37:31;19.00;99.90
4874;DHT22;2451;49.970;9.068;2023-07-31T05:39:56;19.00;99.90
4874;DHT22;2451;49.970;9.068;2023-07-31T05:42:22;19.10;99.90
4874;DHT22;2451;49.970;9.068;2023-07-31T05:44:47;19.10;99.90
4874;DHT22;2451;49.970;9.068;2023-07-31T05:47:13;19.20;99.90
4874;DHT22;2451;49.970;9.068;2023-07-31T05:49:38;19.20;99.90
4874;DHT22;2451;49.970;9.068;2023-07-31T05:52:04;19.20;99.90
4874;DHT22;2451;49.970;9.068;2023-07-31T05:54:31;19.20;99.90
4874;DHT22;2451;49.970;9.068;2023-07-31T05:56:57;19.10;99.90
4874;DHT22;2451;49.970;9.068;2023-07-31T05:59:22;19.20;99.90
4874;DHT22;2451;49.970;9.068;2023-07-31T06:01:48;19.20;99.90
4874;DHT22;2451;49.970;9.068;2023-07-31T06:04:13;19.20;99.90
4874;DHT22;2451;49.970;9.068;2023-07-31T06:06:38;19.20;99.90
4874;DHT22;2451;49.970;9.068;2023-07-31T06:09:04;19.20;99.90
4874;DHT22;2451;49.970;9.068;2023-07-31T06:11:30;19.10;99.90
4874;DHT22;2451;49.970;9.068;2023-07-31T06:13:55;19.20;99.90
4874;DHT22;2451;49.970;9.068;2023-07-31T06:16:21;19.20;99.90
4874;DHT22;2451;49.970;9.068;2023-07-31T06:18:47;19.20;99.90
4874;DHT22;2451;49.970;9.068;2023-07-31T06:21:12;19.20;99.90
4874;DHT22;2451;49.970;9.068;2023-07-31T06:23:38;19.20;99.90
4874;DHT22;2451;49.970;9.068;2023-07-31T06:26:03;19.20;99.90
4874;DHT22;2451;49.970;9.068;2023-07-31T06:28:30;19.20;99.90
4874;DHT22;2451;49.970;9.068;2023-07-31T06:30:56;19.30;99.90
4874;DHT22;2451;49.970;9.068;2023-07-31T06:33:22;19.30;99.90
4874;DHT22;2451;49.970;9.068;2023-07-31T06:35:47;19.30;99.90
4874;DHT22;2451;49.970;9.068;2023-07-31T06:38:13;19.30;99.90
4874;DHT22;2451;49.970;9.068;2023-07-31T06:40:38;19.40;99.90
4874;DHT22;2451;49.970;9.068;2023-07-31T06:43:04;19.50;99.90
4874;DHT22;2451;49.970;9.068;2023-07-31T06:45:35;19.60;99.90
4874;DHT22;2451;49.970;9.068;2023-07-31T06:48:02;19.70;99.90
4874;DHT22;2451;49.970;9.068;2023-07-31T06:50:31;19.80;99.90
4874;DHT22;2451;49.970;9.068;2023-07-31T06:52:57;19.80;99.90
4874;DHT22;2451;49.970;9.068;2023-07-31T06:55:23;19.80;99.90
4874;DHT22;2451;49.970;9.068;2023-07-31T06:57:51;19.90;99.90
4874;DHT22;2451;49.970;9.068;2023-07-31T07:00:18;19.90;99.90
4874;DHT22;2451;49.970;9.068;2023-07-31T07:02:44;19.80;99.90
4874;DHT22;2451;49.970;9.068;2023-07-31T07:05:10;19.80;99.90
4874;DHT22;2451;49.970;9.068;2023-07-31T07:07:36;19.80;99.90
4874;DHT22;2451;49.970;9.068;2023-07-31T07:10:02;19.90;99.90
4874;DHT22;2451;49.970;9.068;2023-07-31T07:12:30;20.00;99.90
4874;DHT22;2451;49.970;9.068;2023-07-31T07:14:56;20.20;99.90
4874;DHT22;2451;49.970;9.068;2023-07-31T07:17:23;20.40;99.90
4874;DHT22;2451;49.970;9.068;2023-07-31T07:19:48;20.40;99.90
4874;DHT22;2451;49.970;9.068;2023-07-31T07:22:14;20.50;99.90
4874;DHT22;2451;49.970;9.068;2023-07-31T07:24:40;20.70;99.90
4874;DHT22;2451;49.970;9.068;2023-07-31T07:27:05;20.80;99.90
4874;DHT22;2451;49.970;9.068;2023-07-31T07:29:31;20.90;99.90
4874;DHT22;2451;49.970;9.068;2023-07-31T07:31:56;21.10;99.90
4874;DHT22;2451;49.970;9.068;2023-07-31T07:34:28;21.20;99.90
4874;DHT22;2451;49.970;9.068;2023-07-31T07:36:54;21.20;99.90
4874;DHT22;2451;49.970;9.068;2023-07-31T07:39:20;21.40;99.90
4874;DHT22;2451;49.970;9.068;2023-07-31T07:41:46;21.50;99.90
4874;DHT22;2451;49.970;9.068;2023-07-31T07:44:12;21.50;99.90
4874;DHT22;2451;49.970;9.068;2023-07-31T07:46:38;21.50;99.90
4874;DHT22;2451;49.970;9.068;2023-07-31T07:49:03;21.30;99.90
4874;DHT22;2451;49.970;9.068;2023-07-31T07:51:29;21.30;99.90
4874;DHT22;2451;49.970;9.068;2023-07-31T07:53:56;21.30;99.90
4874;DHT22;2451;49.970;9.068;2023-07-31T07:56:21;21.30;99.90
4874;DHT22;2451;49.970;9.068;2023-07-31T07:58:49;21.30;99.90
4874;DHT22;2451;49.970;9.068;2023-07-31T08:01:15;21.30;99.90
4874;DHT22;2451;49.970;9.068;2023-07-31T08:03:41;21.30;99.90
4874;DHT22;2451;49.970;9.068;2023-07-31T08:06:06;21.40;99.90
4874;DHT22;2451;49.970;9.068;2023-07-31T08:08:34;21.30;99.90
4874;DHT22;2451;49.970;9.068;2023-07-31T08:11:00;21.30;99.90
4874;DHT22;2451;49.970;9.068;2023-07-31T08:13:26;21.20;99.90
4874;DHT22;2451;49.970;9.068;2023-07-31T08:15:51;21.10;99.90
4874;DHT22;2451;49.970;9.068;2023-07-31T08:18:17;21.20;99.90
4874;DHT22;2451;49.970;9.068;2023-07-31T08:20:43;21.10;99.90
4874;DHT22;2451;49.970;9.068;2023-07-31T08:23:09;21.10;99.90
4874;DHT22;2451;49.970;9.068;2023-07-31T08:25:35;21.20;99.90
4874;DHT22;2451;49.970;9.068;2023-07-31T08:28:01;21.30;99.90
4874;DHT22;2451;49.970;9.068;2023-07-31T08:30:27;21.40;99.90
4874;DHT22;2451;49.970;9.068;2023-07-31T08:32:52;21.40;99.90
4874;DHT22;2451;49.970;9.068;2023-07-31T08:35:18;21.40;99.90
4874;DHT22;2451;49.970;9.068;2023-07-31T08:37:43;21.40;99.90
4874;DHT22;2451;49.970;9.068;2023-07-31T08:40:09;21.60;99.90
4874;DHT22;2451;49.970;9.068;2023-07-31T08:42:46;21.70;99.90
4874;DHT22;2451;49.970;9.068;2023-07-31T08:45:16;21.90;99.90
4874;DHT22;2451;49.970;9.068;2023-07-31T08:47:47;21.90;99.90
4874;DHT22;2451;49.970;9.068;2023-07-31T08:50:14;21.70;99.90
4874;DHT22;2451;49.970;9.068;2023-07-31T08:52:40;21.60;99.90
4874;DHT22;2451;49.970;9.068;2023-07-31T08:55:06;21.60;99.90
4874;DHT22;2451;49.970;9.068;2023-07-31T08:57:34;21.60;99.90
4874;DHT22;2451;49.970;9.068;2023-07-31T09:00:00;21.70;99.90
4874;DHT22;2451;49.970;9.068;2023-07-31T09:02:34;21.60;99.90
4874;DHT22;2451;49.970;9.068;2023-07-31T09:05:01;21.70;99.90
4874;DHT22;2451;49.970;9.068;2023-07-31T09:07:27;21.70;99.90
4874;DHT22;2451;49.970;9.068;2023-07-31T09:09:54;21.90;99.90
4874;DHT22;2451;49.970;9.068;2023-07-31T09:12:19;21.90;99.90
4874;DHT22;2451;49.970;9.068;2023-07-31T09:14:45;22.00;99.90
4874;DHT22;2451;49.970;9.068;2023-07-31T09:17:11;22.00;99.90
4874;DHT22;2451;49.970;9.068;2023-07-31T09:19:37;22.10;99.90
4874;DHT22;2451;49.970;9.068;2023-07-31T09:22:06;22.20;99.90
4874;DHT22;2451;49.970;9.068;2023-07-31T09:24:33;22.30;99.90
4874;DHT22;2451;49.970;9.068;2023-07-31T09:27:00;22.40;99.90
4874;DHT22;2451;49.970;9.068;2023-07-31T09:29:27;22.50;99.90
4874;DHT22;2451;49.970;9.068;2023-07-31T09:31:54;22.50;99.90
4874;DHT22;2451;49.970;9.068;2023-07-31T09:34:27;22.70;99.90
4874;DHT22;2451;49.970;9.068;2023-07-31T09:36:53;22.70;99.90
4874;DHT22;2451;49.970;9.068;2023-07-31T09:39:19;22.60;99.90
4874;DHT22;2451;49.970;9.068;2023-07-31T09:41:54;22.50;99.90
4874;DHT22;2451;49.970;9.068;2023-07-31T09:44:19;22.40;99.90
4874;DHT22;2451;49.970;9.068;2023-07-31T09:46:45;22.10;99.90
4874;DHT22;2451;49.970;9.068;2023-07-31T09:49:12;21.90;99.90
4874;DHT22;2451;49.970;9.068;2023-07-31T09:51:40;21.70;99.90
4874;DHT22;2451;49.970;9.068;2023-07-31T09:54:17;21.50;99.90
4874;DHT22;2451;49.970;9.068;2023-07-31T09:56:46;21.40;99.90
4874;DHT22;2451;49.970;9.068;2023-07-31T09:59:13;21.20;99.90
4874;DHT22;2451;49.970;9.068;2023-07-31T10:01:44;21.30;99.90
4874;DHT22;2451;49.970;9.068;2023-07-31T10:04:12;21.30;99.90
4874;DHT22;2451;49.970;9.068;2023-07-31T10:06:39;21.50;99.90
4874;DHT22;2451;49.970;9.068;2023-07-31T10:09:07;21.60;99.90
4874;DHT22;2451;49.970;9.068;2023-07-31T10:11:38;21.80;99.90
4874;DHT22;2451;49.970;9.068;2023-07-31T10:14:07;21.90;99.90
4874;DHT22;2451;49.970;9.068;2023-07-31T10:16:33;22.00;99.90
4874;DHT22;2451;49.970;9.068;2023-07-31T10:18:59;22.00;99.90
4874;DHT22;2451;49.970;9.068;2023-07-31T10:21:25;22.10;99.90
4874;DHT22;2451;49.970;9.068;2023-07-31T10:23:51;22.10;99.90
4874;DHT22;2451;49.970;9.068;2023-07-31T10:26:17;22.10;99.90
4874;DHT22;2451;49.970;9.068;2023-07-31T10:28:45;22.10;99.90
4874;DHT22;2451;49.970;9.068;2023-07-31T10:31:12;22.10;99.90
4874;DHT22;2451;49.970;9.068;2023-07-31T10:33:38;21.90;99.90
4874;DHT22;2451;49.970;9.068;2023-07-31T10:36:20;21.90;99.90
4874;DHT22;2451;49.970;9.068;2023-07-31T10:38:49;21.90;99.90
4874;DHT22;2451;49.970;9.068;2023-07-31T10:41:15;21.90;99.90
4874;DHT22;2451;49.970;9.068;2023-07-31T10:43:40;21.90;99.90
4874;DHT22;2451;49.970;9.068;2023-07-31T10:46:07;21.90;99.90
4874;DHT22;2451;49.970;9.068;2023-07-31T10:48:34;22.00;99.90
4874;DHT22;2451;49.970;9.068;2023-07-31T10:51:07;22.10;99.90
4874;DHT22;2451;49.970;9.068;2023-07-31T10:53:33;22.30;99.90
4874;DHT22;2451;49.970;9.068;2023-07-31T10:56:03;22.40;99.90
4874;DHT22;2451;49.970;9.068;2023-07-31T10:58:30;22.60;99.90
4874;DHT22;2451;49.970;9.068;2023-07-31T11:00:58;22.60;99.90
4874;DHT22;2451;49.970;9.068;2023-07-31T11:06:09;22.70;99.90
4874;DHT22;2451;49.970;9.068;2023-07-31T11:08:40;22.70;99.90
4874;DHT22;2451;49.970;9.068;2023-07-31T11:11:08;22.60;99.90
4874;DHT22;2451;49.970;9.068;2023-07-31T11:13:44;22.70;99.90
4874;DHT22;2451;49.970;9.068;2023-07-31T11:16:11;22.80;99.90
4874;DHT22;2451;49.970;9.068;2023-07-31T11:18:40;22.90;99.90
4874;DHT22;2451;49.970;9.068;2023-07-31T11:21:06;23.00;99.90
4874;DHT22;2451;49.970;9.068;2023-07-31T11:23:32;23.30;99.90
4874;DHT22;2451;49.970;9.068;2023-07-31T11:26:01;23.60;99.90
4874;DHT22;2451;49.970;9.068;2023-07-31T11:28:32;23.70;99.90
4874;DHT22;2451;49.970;9.068;2023-07-31T11:30:58;23.70;99.90
4874;DHT22;2451;49.970;9.068;2023-07-31T11:33:23;23.60;99.90
4874;DHT22;2451;49.970;9.068;2023-07-31T11:35:49;23.90;99.90
4874;DHT22;2451;49.970;9.068;2023-07-31T11:38:33;23.80;99.90
4874;DHT22;2451;49.970;9.068;2023-07-31T11:41:00;23.80;99.90
4874;DHT22;2451;49.970;9.068;2023-07-31T11:43:31;24.10;99.90
4874;DHT22;2451;49.970;9.068;2023-07-31T11:45:58;24.20;99.90
4874;DHT22;2451;49.970;9.068;2023-07-31T11:48:26;24.30;99.90
4874;DHT22;2451;49.970;9.068;2023-07-31T11:50:53;24.40;99.90
4874;DHT22;2451;49.970;9.068;2023-07-31T11:53:25;24.60;99.90
4874;DHT22;2451;49.970;9.068;2023-07-31T11:55:52;24.80;99.90
4874;DHT22;2451;49.970;9.068;2023-07-31T11:58:18;24.80;99.90
4874;DHT22;2451;49.970;9.068;2023-07-31T12:00:44;24.70;99.90
4874;DHT22;2451;49.970;9.068;2023-07-31T12:03:11;24.60;99.90
4874;DHT22;2451;49.970;9.068;2023-07-31T12:05:37;24.60;99.90
4874;DHT22;2451;49.970;9.068;2023-07-31T12:08:09;24.60;99.90
4874;DHT22;2451;49.970;9.068;2023-07-31T12:10:34;24.50;99.90
4874;DHT22;2451;49.970;9.068;2023-07-31T12:15:33;24.40;99.90
4874;DHT22;2451;49.970;9.068;2023-07-31T12:17:59;24.10;99.90
4874;DHT22;2451;49.970;9.068;2023-07-31T12:20:24;23.90;99.90
4874;DHT22;2451;49.970;9.068;2023-07-31T12:22:50;23.80;99.90
4874;DHT22;2451;49.970;9.068;2023-07-31T12:25:16;23.60;99.90
4874;DHT22;2451;49.970;9.068;2023-07-31T12:27:44;23.50;99.90
4874;DHT22;2451;49.970;9.068;2023-07-31T12:30:29;23.40;99.90
4874;DHT22;2451;49.970;9.068;2023-07-31T12:32:55;23.40;99.90
4874;DHT22;2451;49.970;9.068;2023-07-31T12:35:20;23.40;99.90
4874;DHT22;2451;49.970;9.068;2023-07-31T12:37:46;23.30;99.90
4874;DHT22;2451;49.970;9.068;2023-07-31T12:40:12;23.50;99.90
4874;DHT22;2451;49.970;9.068;2023-07-31T12:42:38;23.60;99.90
4874;DHT22;2451;49.970;9.068;2023-07-31T12:45:03;23.80;99.90
4874;DHT22;2451;49.970;9.068;2023-07-31T12:47:29;23.90;99.90
4874;DHT22;2451;49.970;9.068;2023-07-31T12:49:55;23.80;99.90
4874;DHT22;2451;49.970;9.068;2023-07-31T12:52:21;23.70;99.90
4874;DHT22;2451;49.970;9.068;2023-07-31T12:54:46;23.70;99.90
4874;DHT22;2451;49.970;9.068;2023-07-31T12:57:12;23.60;99.90
4874;DHT22;2451;49.970;9.068;2023-07-31T12:59:37;23.50;99.90
4874;DHT22;2451;49.970;9.068;2023-07-31T13:02:03;23.30;99.90
4874;DHT22;2451;49.970;9.068;2023-07-31T13:04:28;23.10;99.90
4874;DHT22;2451;49.970;9.068;2023-07-31T13:06:54;23.00;99.90
4874;DHT22;2451;49.970;9.068;2023-07-31T13:09:20;23.00;99.90
4874;DHT22;2451;49.970;9.068;2023-07-31T13:11:45;22.90;99.90
4874;DHT22;2451;49.970;9.068;2023-07-31T13:14:11;22.90;99.90
4874;DHT22;2451;49.970;9.068;2023-07-31T13:16:37;23.00;99.90
4874;DHT22;2451;49.970;9.068;2023-07-31T13:19:03;23.00;99.90
4874;DHT22;2451;49.970;9.068;2023-07-31T13:21:29;23.10;99.90
4874;DHT22;2451;49.970;9.068;2023-07-31T13:23:54;23.10;99.90
4874;DHT22;2451;49.970;9.068;2023-07-31T13:26:23;23.10;99.90
4874;DHT22;2451;49.970;9.068;2023-07-31T13:28:48;23.00;99.90
4874;DHT22;2451;49.970;9.068;2023-07-31T13:31:14;23.00;99.90
4874;DHT22;2451;49.970;9.068;2023-07-31T13:33:39;22.90;99.90
4874;DHT22;2451;49.970;9.068;2023-07-31T13:36:05;22.90;99.90
4874;DHT22;2451;49.970;9.068;2023-07-31T13:38:30;22.90;99.90
4874;DHT22;2451;49.970;9.068;2023-07-31T13:40:56;23.00;99.90
4874;DHT22;2451;49.970;9.068;2023-07-31T13:43:22;23.20;99.90
4874;DHT22;2451;49.970;9.068;2023-07-31T13:45:47;23.40;99.90
4874;DHT22;2451;49.970;9.068;2023-07-31T13:48:13;23.60;99.90
4874;DHT22;2451;49.970;9.068;2023-07-31T13:50:38;23.80;99.90
4874;DHT22;2451;49.970;9.068;2023-07-31T13:53:04;23.80;99.90
4874;DHT22;2451;49.970;9.068;2023-07-31T13:55:29;23.80;99.90
4874;DHT22;2451;49.970;9.068;2023-07-31T13:57:55;23.80;99.90
4874;DHT22;2451;49.970;9.068;2023-07-31T14:00:21;23.80;99.90
4874;DHT22;2451;49.970;9.068;2023-07-31T14:02:46;23.80;99.90
4874;DHT22;2451;49.970;9.068;2023-07-31T14:05:12;23.80;99.90
4874;DHT22;2451;49.970;9.068;2023-07-31T14:07:37;23.80;99.90
4874;DHT22;2451;49.970;9.068;2023-07-31T14:10:03;23.70;99.90
4874;DHT22;2451;49.970;9.068;2023-07-31T14:12:29;23.70;99.90
4874;DHT22;2451;49.970;9.068;2023-07-31T14:14:55;23.60;99.90
4874;DHT22;2451;49.970;9.068;2023-07-31T14:17:21;23.60;99.90
4874;DHT22;2451;49.970;9.068;2023-07-31T14:19:46;23.50;99.90
4874;DHT22;2451;49.970;9.068;2023-07-31T14:22:12;23.40;99.90
4874;DHT22;2451;49.970;9.068;2023-07-31T14:24:38;23.40;99.90
4874;DHT22;2451;49.970;9.068;2023-07-31T14:27:04;23.30;99.90
4874;DHT22;2451;49.970;9.068;2023-07-31T14:29:30;23.30;99.90
4874;DHT22;2451;49.970;9.068;2023-07-31T14:31:55;23.20;99.90
4874;DHT22;2451;49.970;9.068;2023-07-31T14:34:21;23.20;99.90
4874;DHT22;2451;49.970;9.068;2023-07-31T14:36:46;23.10;99.90
4874;DHT22;2451;49.970;9.068;2023-07-31T14:39:12;23.00;99.90
4874;DHT22;2451;49.970;9.068;2023-07-31T14:41:37;23.00;99.90
4874;DHT22;2451;49.970;9.068;2023-07-31T14:44:03;23.00;99.90
4874;DHT22;2451;49.970;9.068;2023-07-31T14:46:28;23.00;99.90
4874;DHT22;2451;49.970;9.068;2023-07-31T14:48:54;23.00;99.90
4874;DHT22;2451;49.970;9.068;2023-07-31T14:51:19;23.00;99.90
4874;DHT22;2451;49.970;9.068;2023-07-31T14:53:45;23.00;99.90
4874;DHT22;2451;49.970;9.068;2023-07-31T14:56:12;22.90;99.90
4874;DHT22;2451;49.970;9.068;2023-07-31T14:58:38;22.90;99.90
4874;DHT22;2451;49.970;9.068;2023-07-31T15:01:03;22.90;99.90
4874;DHT22;2451;49.970;9.068;2023-07-31T15:03:29;22.90;99.90
4874;DHT22;2451;49.970;9.068;2023-07-31T15:05:54;22.90;99.90
4874;DHT22;2451;49.970;9.068;2023-07-31T15:08:20;22.80;99.90
4874;DHT22;2451;49.970;9.068;2023-07-31T15:10:45;22.80;99.90
4874;DHT22;2451;49.970;9.068;2023-07-31T15:13:11;22.80;99.90
4874;DHT22;2451;49.970;9.068;2023-07-31T15:15:36;22.70;99.90
4874;DHT22;2451;49.970;9.068;2023-07-31T15:18:02;22.70;99.90
4874;DHT22;2451;49.970;9.068;2023-07-31T15:20:28;22.70;99.90
4874;DHT22;2451;49.970;9.068;2023-07-31T15:22:55;22.80;99.90
4874;DHT22;2451;49.970;9.068;2023-07-31T15:25:21;22.80;99.90
4874;DHT22;2451;49.970;9.068;2023-07-31T15:27:46;22.80;99.90
4874;DHT22;2451;49.970;9.068;2023-07-31T15:30:12;22.70;99.90
4874;DHT22;2451;49.970;9.068;2023-07-31T15:32:38;22.70;99.90
4874;DHT22;2451;49.970;9.068;2023-07-31T15:35:05;22.60;99.90
4874;DHT22;2451;49.970;9.068;2023-07-31T15:37:30;22.60;99.90
4874;DHT22;2451;49.970;9.068;2023-07-31T15:39:56;22.60;99.90
4874;DHT22;2451;49.970;9.068;2023-07-31T15:42:21;22.50;99.90
4874;DHT22;2451;49.970;9.068;2023-07-31T15:44:47;22.40;99.90
4874;DHT22;2451;49.970;9.068;2023-07-31T15:47:12;22.40;99.90
4874;DHT22;2451;49.970;9.068;2023-07-31T15:49:38;22.40;99.90
4874;DHT22;2451;49.970;9.068;2023-07-31T15:52:04;22.30;99.90
4874;DHT22;2451;49.970;9.068;2023-07-31T15:54:29;22.30;99.90
4874;DHT22;2451;49.970;9.068;2023-07-31T15:56:55;22.30;99.90
4874;DHT22;2451;49.970;9.068;2023-07-31T15:59:20;22.20;99.90
4874;DHT22;2451;49.970;9.068;2023-07-31T16:01:46;22.20;99.90
4874;DHT22;2451;49.970;9.068;2023-07-31T16:04:11;22.20;99.90
4874;DHT22;2451;49.970;9.068;2023-07-31T16:06:37;22.10;99.90
4874;DHT22;2451;49.970;9.068;2023-07-31T16:09:02;22.10;99.90